createdAt,value
2023-05-19T00:01:52.542Z,0.88
2023-05-19T00:04:21.305Z,0.88
2023-05-19T00:06:52.046Z,1.15
2023-05-19T00:09:21.847Z,1.25
2023-05-19T00:11:50.216Z,1.10
2023-05-19T00:14:18.664Z,1.30
2023-05-19T00:16:47.500Z,0.98
2023-05-19T00:19:16.910Z,1.05
2023-05-19T00:21:44.914Z,1.08
2023-05-19T00:24:13.244Z,1.40
2023-05-19T00:26:42.370Z,1.75
2023-05-19T00:29:10.267Z,1.10
2023-05-19T00:31:38.129Z,1.98
2023-05-19T00:34:06.652Z,1.13
2023-05-19T00:36:34.506Z,2.08
2023-05-19T00:39:02.308Z,1.42
2023-05-19T00:41:30.384Z,1.60
2023-05-19T00:43:59.470Z,1.10
2023-05-19T00:46:27.352Z,0.80
2023-05-19T00:48:55.114Z,1.00
2023-05-19T00:51:24.663Z,0.95
2023-05-19T00:53:52.739Z,0.90
2023-05-19T00:56:22.442Z,1.73
2023-05-19T00:58:52.648Z,0.85
2023-05-19T01:01:22.384Z,0.82
2023-05-19T01:03:51.348Z,0.73
2023-05-19T01:06:20.872Z,1.50
2023-05-19T01:08:49.718Z,1.00
2023-05-19T01:11:17.517Z,1.38
2023-05-19T01:13:45.641Z,1.02
2023-05-19T01:16:20.174Z,1.60
2023-05-19T01:18:57.878Z,0.70
2023-05-19T01:21:58.474Z,1.42
2023-05-19T01:24:45.202Z,1.10
2023-05-19T01:27:30.874Z,0.70
2023-05-19T01:30:25.406Z,0.77
2023-05-19T01:32:56.261Z,0.88
2023-05-19T01:35:26.594Z,0.80
2023-05-19T01:37:57.736Z,1.05
2023-05-19T01:40:27.116Z,1.08
2023-05-19T01:42:57.826Z,1.52
2023-05-19T01:45:29.427Z,0.70
2023-05-19T01:47:59.172Z,1.10
2023-05-19T01:50:27.575Z,0.63
2023-05-19T01:52:55.653Z,1.02
2023-05-19T01:55:23.928Z,1.10
2023-05-19T01:58:02.064Z,1.40
2023-05-19T02:00:43.164Z,1.23
2023-05-19T02:03:25.895Z,0.70
2023-05-19T02:05:57.046Z,0.80
2023-05-19T02:08:31.260Z,0.90
2023-05-19T02:11:03.993Z,1.05
2023-05-19T02:13:38.037Z,0.80
2023-05-19T02:16:09.240Z,1.15
2023-05-19T02:18:37.151Z,0.88
2023-05-19T02:21:05.232Z,0.80
2023-05-19T02:23:33.034Z,1.05
2023-05-19T02:26:01.080Z,0.82
2023-05-19T02:28:28.855Z,1.92
2023-05-19T02:30:56.619Z,1.02
2023-05-19T02:33:27.479Z,1.30
2023-05-19T02:35:56.167Z,1.77
2023-05-19T02:38:24.615Z,1.13
2023-05-19T02:40:54.044Z,0.98
2023-05-19T02:43:21.793Z,0.70
2023-05-19T02:45:49.653Z,1.08
2023-05-19T02:48:17.447Z,0.88
2023-05-19T02:50:46.530Z,1.02
2023-05-19T02:53:14.365Z,0.98
2023-05-19T02:55:43.218Z,1.40
2023-05-19T02:58:10.954Z,0.60
2023-05-19T03:00:38.861Z,1.00
2023-05-19T03:03:06.730Z,1.05
2023-05-19T03:05:34.507Z,0.55
2023-05-19T03:08:03.697Z,0.90
2023-05-19T03:10:31.757Z,1.48
2023-05-19T03:12:59.583Z,1.35
2023-05-19T03:15:27.409Z,1.13
2023-05-19T03:17:55.440Z,1.25
2023-05-19T03:20:24.494Z,0.73
2023-05-19T03:22:52.357Z,0.85
2023-05-19T03:25:21.851Z,0.82
2023-05-19T03:27:49.752Z,0.93
2023-05-19T03:30:17.926Z,1.08
2023-05-19T03:32:57.315Z,1.50
2023-05-19T03:35:25.220Z,1.00
2023-05-19T03:37:53.263Z,1.00
2023-05-19T03:40:23.125Z,1.40
2023-05-19T03:42:54.331Z,0.90
2023-05-19T03:45:22.140Z,1.25
2023-05-19T03:47:52.093Z,1.60
2023-05-19T03:50:44.504Z,0.90
2023-05-19T03:53:26.558Z,1.10
2023-05-19T03:55:56.671Z,0.85
2023-05-19T03:58:24.538Z,0.93
2023-05-19T04:00:54.601Z,1.05
2023-05-19T04:03:22.686Z,0.63
2023-05-19T04:05:51.694Z,1.05
2023-05-19T04:08:19.647Z,0.82
2023-05-19T04:10:47.885Z,1.20
2023-05-19T04:13:16.979Z,0.60
2023-05-19T04:15:44.959Z,0.77
2023-05-19T04:18:12.752Z,0.60
2023-05-19T04:20:41.590Z,0.65
2023-05-19T04:23:09.605Z,0.90
2023-05-19T04:25:38.179Z,0.80
2023-05-19T04:28:06.096Z,0.93
2023-05-19T04:30:36.745Z,1.45
2023-05-19T04:33:04.928Z,1.02
2023-05-19T04:35:33.055Z,0.77
2023-05-19T04:38:02.779Z,1.10
2023-05-19T04:40:33.837Z,0.75
2023-05-19T04:43:01.973Z,1.40
2023-05-19T04:45:30.258Z,1.10
2023-05-19T04:48:02.490Z,1.55
2023-05-19T04:50:32.448Z,0.50
2023-05-19T04:53:01.278Z,1.20
2023-05-19T04:55:29.185Z,1.23
2023-05-19T04:57:56.981Z,0.73
2023-05-19T05:00:25.394Z,1.48
2023-05-19T05:02:59.970Z,0.93
2023-05-19T05:05:32.112Z,0.68
2023-05-19T05:08:00.093Z,0.80
2023-05-19T05:10:31.304Z,0.68
2023-05-19T05:13:00.809Z,1.30
2023-05-19T05:15:29.935Z,1.42
2023-05-19T05:18:00.388Z,1.25
2023-05-19T05:20:28.789Z,1.48
2023-05-19T05:22:59.317Z,1.48
2023-05-19T05:25:28.612Z,0.85
2023-05-19T05:27:58.869Z,0.63
2023-05-19T05:30:26.658Z,0.95
2023-05-19T05:32:55.313Z,1.13
2023-05-19T05:35:34.027Z,1.15
2023-05-19T05:38:03.491Z,0.85
2023-05-19T05:40:31.327Z,0.85
2023-05-19T05:42:59.923Z,1.02
2023-05-19T05:45:31.417Z,1.98
2023-05-19T05:48:01.769Z,1.20
2023-05-19T05:50:33.370Z,0.80
2023-05-19T05:53:04.707Z,1.13
2023-05-19T05:55:34.600Z,0.85
2023-05-19T05:58:03.580Z,1.20
2023-05-19T06:00:31.787Z,1.30
2023-05-19T06:03:00.120Z,1.02
2023-05-19T06:05:27.997Z,1.00
2023-05-19T06:07:57.965Z,1.40
2023-05-19T06:10:29.131Z,1.63
2023-05-19T06:12:57.139Z,1.20
2023-05-19T06:15:26.255Z,1.73
2023-05-19T06:20:28.547Z,0.93
2023-05-19T06:22:57.287Z,1.30
2023-05-19T06:25:29.164Z,0.88
2023-05-19T06:27:58.059Z,1.10
2023-05-19T06:30:25.974Z,1.05
2023-05-19T06:33:07.947Z,1.10
2023-05-19T06:35:35.741Z,1.05
2023-05-19T06:38:03.648Z,1.15
2023-05-19T06:40:33.098Z,1.52
2023-05-19T06:43:01.140Z,0.85
2023-05-19T06:45:36.004Z,1.35
2023-05-19T06:48:06.044Z,1.33
2023-05-19T06:50:34.102Z,0.85
2023-05-19T06:53:02.258Z,0.90
2023-05-19T06:55:32.217Z,1.13
2023-05-19T06:58:00.129Z,0.77
2023-05-19T07:00:27.930Z,1.33
2023-05-19T07:02:56.474Z,1.63
2023-05-19T07:05:25.013Z,1.10
2023-05-19T07:07:57.070Z,1.10
2023-05-19T07:10:27.892Z,1.13
2023-05-19T07:12:58.145Z,2.00
2023-05-19T07:15:29.154Z,1.17
2023-05-19T07:17:59.174Z,1.00
2023-05-19T07:20:27.186Z,1.00
2023-05-19T07:22:55.850Z,1.60
2023-05-19T07:25:23.776Z,1.10
2023-05-19T07:27:52.094Z,1.13
2023-05-19T07:30:21.213Z,1.08
2023-05-19T07:32:49.094Z,1.17
2023-05-19T07:35:17.073Z,1.23
2023-05-19T07:37:45.016Z,1.08
2023-05-19T07:40:13.208Z,1.35
2023-05-19T07:42:41.585Z,0.90
2023-05-19T07:45:10.111Z,2.33
2023-05-19T07:47:39.301Z,1.02
2023-05-19T07:50:08.297Z,1.30
2023-05-19T07:52:36.916Z,1.17
2023-05-19T07:55:05.119Z,0.85
2023-05-19T07:57:33.474Z,0.90
2023-05-19T08:00:01.294Z,0.95
2023-05-19T08:02:42.425Z,1.08
2023-05-19T08:05:11.619Z,0.98
2023-05-19T08:07:39.418Z,1.00
2023-05-19T08:10:07.916Z,1.00
2023-05-19T08:12:35.870Z,1.17
2023-05-19T08:15:03.609Z,1.27
2023-05-19T08:17:31.551Z,0.88
2023-05-19T08:20:01.195Z,1.30
2023-05-19T08:22:31.912Z,1.95
2023-05-19T08:24:59.748Z,1.27
2023-05-19T08:27:27.669Z,1.13
2023-05-19T08:29:55.897Z,0.95
2023-05-19T08:32:23.783Z,0.90
2023-05-19T08:34:51.653Z,0.90
2023-05-19T08:37:20.797Z,2.00
2023-05-19T08:39:48.647Z,1.10
2023-05-19T08:42:16.484Z,1.10
2023-05-19T08:44:44.363Z,1.00
2023-05-19T08:47:13.991Z,1.02
2023-05-19T08:49:46.202Z,0.60
2023-05-19T08:52:26.328Z,1.50
2023-05-19T08:55:06.213Z,1.30
2023-05-19T08:57:34.655Z,1.15
2023-05-19T09:00:05.253Z,0.90
2023-05-19T09:02:34.203Z,0.82
2023-05-19T09:05:02.498Z,1.20
2023-05-19T09:07:34.846Z,0.70
2023-05-19T09:10:03.402Z,0.70
2023-05-19T09:12:31.556Z,1.25
2023-05-19T09:14:59.484Z,1.10
2023-05-19T09:17:27.295Z,1.58
2023-05-19T09:19:55.399Z,0.95
2023-05-19T09:22:23.410Z,0.90
2023-05-19T09:24:54.019Z,1.10
2023-05-19T09:27:23.408Z,1.10
2023-05-19T09:29:51.267Z,1.23
2023-05-19T09:32:26.561Z,1.20
2023-05-19T09:34:55.056Z,1.15
2023-05-19T09:37:24.604Z,0.90
2023-05-19T09:39:54.406Z,1.08
2023-05-19T09:42:26.876Z,0.70
2023-05-19T09:45:01.120Z,2.53
2023-05-19T09:49:58.497Z,1.00
2023-05-19T09:52:27.389Z,1.30
2023-05-19T09:54:57.868Z,1.13
2023-05-19T09:57:28.292Z,1.15
2023-05-19T09:59:58.556Z,1.83
2023-05-19T10:02:27.582Z,1.92
2023-05-19T10:04:56.622Z,1.70
2023-05-19T10:07:25.549Z,1.35
2023-05-19T10:09:57.964Z,1.55
2023-05-19T10:12:27.623Z,0.80
2023-05-19T10:14:56.461Z,1.25
2023-05-19T10:17:27.186Z,0.98
2023-05-19T10:19:55.805Z,1.20
2023-05-19T10:22:23.622Z,0.90
2023-05-19T10:24:51.422Z,1.30
2023-05-19T10:27:21.411Z,1.73
2023-05-19T10:29:51.929Z,1.83
2023-05-19T10:32:24.275Z,1.48
2023-05-19T10:35:21.543Z,1.48
2023-05-19T10:37:58.452Z,1.10
2023-05-19T10:40:29.656Z,0.90
2023-05-19T10:43:22.043Z,1.20
2023-05-19T10:45:52.289Z,1.10
2023-05-19T10:48:22.322Z,1.50
2023-05-19T10:50:54.900Z,1.52
2023-05-19T10:53:23.101Z,1.17
2023-05-19T10:55:56.071Z,1.00
2023-05-19T10:58:50.344Z,2.08
2023-05-19T11:01:19.631Z,0.77
2023-05-19T11:03:49.623Z,1.20
2023-05-19T11:06:22.399Z,1.33
2023-05-19T11:08:54.439Z,1.20
2023-05-19T11:11:23.385Z,1.17
2023-05-19T11:13:56.795Z,0.90
2023-05-19T11:16:32.478Z,1.00
2023-05-19T11:19:00.930Z,1.10
2023-05-19T11:21:42.642Z,1.60
2023-05-19T11:24:10.938Z,1.35
2023-05-19T11:26:43.275Z,1.13
2023-05-19T11:29:13.231Z,1.20
2023-05-19T11:31:44.773Z,1.30
2023-05-19T11:34:13.937Z,1.00
2023-05-19T11:36:42.794Z,1.30
2023-05-19T11:39:12.404Z,1.15
2023-05-19T11:41:40.791Z,1.05
2023-05-19T11:44:12.833Z,1.00
2023-05-19T11:46:40.930Z,1.42
2023-05-19T11:49:08.961Z,1.15
2023-05-19T11:51:38.303Z,1.75
2023-05-19T11:54:06.635Z,1.40
2023-05-19T11:56:36.717Z,0.88
2023-05-19T11:59:04.573Z,1.02
2023-05-19T12:01:34.237Z,1.60
2023-05-19T12:04:02.757Z,1.38
2023-05-19T12:06:31.158Z,0.95
2023-05-19T12:08:59.144Z,1.05
2023-05-19T12:11:29.491Z,1.17
2023-05-19T12:13:59.747Z,1.77
2023-05-19T12:16:35.436Z,1.02
2023-05-19T12:19:03.356Z,1.05
2023-05-19T12:21:34.263Z,1.42
2023-05-19T12:24:03.077Z,1.10
2023-05-19T12:26:31.026Z,1.27
2023-05-19T12:29:00.014Z,1.15
2023-05-19T12:31:27.876Z,1.20
2023-05-19T12:33:57.157Z,0.60
2023-05-19T12:36:25.416Z,1.77
2023-05-19T12:38:55.187Z,1.83
2023-05-19T12:41:23.124Z,1.67
2023-05-19T12:43:51.061Z,1.30
2023-05-19T12:46:20.644Z,1.90
2023-05-19T12:48:48.868Z,1.40
2023-05-19T12:51:21.365Z,1.75
2023-05-19T12:53:51.425Z,1.80
2023-05-19T12:56:19.284Z,1.17
2023-05-19T12:58:47.140Z,1.52
2023-05-19T13:01:18.772Z,0.93
2023-05-19T13:03:46.808Z,1.30
2023-05-19T13:06:14.687Z,1.60
2023-05-19T13:08:43.889Z,1.20
2023-05-19T13:11:11.990Z,1.08
2023-05-19T13:13:39.818Z,1.35
2023-05-19T13:16:08.124Z,1.60
2023-05-19T13:18:38.304Z,1.30
2023-05-19T13:21:06.542Z,1.20
2023-05-19T13:23:34.702Z,1.52
2023-05-19T13:26:05.091Z,0.80
2023-05-19T13:28:32.940Z,1.15
2023-05-19T13:31:00.865Z,1.05
2023-05-19T13:33:28.635Z,1.42
2023-05-19T13:35:56.936Z,1.38
2023-05-19T13:38:24.756Z,1.10
2023-05-19T13:40:52.519Z,1.33
2023-05-19T13:43:23.306Z,1.13
2023-05-19T13:45:51.123Z,0.88
2023-05-19T13:48:19.068Z,1.10
2023-05-19T13:50:47.101Z,1.48
2023-05-19T13:53:15.009Z,1.27
2023-05-19T13:55:42.702Z,1.50
2023-05-19T13:58:10.957Z,1.73
2023-05-19T14:00:41.011Z,1.23
2023-05-19T14:03:08.864Z,1.33
2023-05-19T14:05:37.285Z,0.88
2023-05-19T14:08:05.693Z,1.50
2023-05-19T14:10:33.841Z,1.42
2023-05-19T14:15:37.597Z,0.90
2023-05-19T14:18:07.314Z,1.88
2023-05-19T14:20:35.742Z,1.90
2023-05-19T14:23:03.797Z,0.88
2023-05-19T14:25:31.578Z,1.40
2023-05-19T14:27:59.363Z,1.00
2023-05-19T14:30:27.112Z,2.13
2023-05-19T14:32:55.028Z,1.63
2023-05-19T14:35:24.580Z,1.10
2023-05-19T14:37:52.564Z,1.17
2023-05-19T14:40:20.612Z,1.05
2023-05-19T14:42:48.342Z,1.20
2023-05-19T14:45:16.425Z,1.00
2023-05-19T14:47:44.337Z,0.82
2023-05-19T14:50:12.553Z,1.58
2023-05-19T14:52:41.787Z,1.40
2023-05-19T14:55:11.610Z,1.20
2023-05-19T14:57:39.411Z,1.15
2023-05-19T15:00:09.291Z,1.50
2023-05-19T15:02:37.364Z,1.00
2023-05-19T15:05:05.797Z,0.90
2023-05-19T15:07:33.597Z,1.30
2023-05-19T15:10:02.752Z,0.90
2023-05-19T15:12:30.563Z,1.23
2023-05-19T15:14:58.406Z,1.27
2023-05-19T15:17:26.353Z,1.10
2023-05-19T15:19:54.285Z,1.27
2023-05-19T15:22:22.074Z,1.15
2023-05-19T15:24:49.966Z,1.52
2023-05-19T15:27:19.185Z,1.40
2023-05-19T15:29:47.158Z,1.27
2023-05-19T15:32:14.965Z,1.60
2023-05-19T15:34:42.811Z,0.63
2023-05-19T15:37:10.653Z,1.90
2023-05-19T15:39:38.393Z,1.00
2023-05-19T15:42:06.394Z,1.10
2023-05-19T15:44:36.545Z,1.27
2023-05-19T15:47:04.464Z,1.60
2023-05-19T15:49:33.444Z,0.98
2023-05-19T15:52:01.211Z,1.30
2023-05-19T15:54:28.991Z,1.00
2023-05-19T15:56:56.763Z,1.30
2023-05-19T15:59:25.178Z,1.25
2023-05-19T16:01:54.392Z,1.95
2023-05-19T16:04:22.273Z,1.08
2023-05-19T16:06:50.511Z,1.02
2023-05-19T16:09:18.314Z,1.10
2023-05-19T16:11:46.132Z,1.15
2023-05-19T16:14:14.271Z,1.02
2023-05-19T16:16:42.313Z,1.10
2023-05-19T16:19:11.672Z,2.03
2023-05-19T16:21:39.542Z,1.60
2023-05-19T16:24:07.818Z,1.30
2023-05-19T16:26:35.662Z,1.20
2023-05-19T16:29:03.640Z,0.93
2023-05-19T16:31:31.614Z,1.27
2023-05-19T16:33:59.438Z,1.15
2023-05-19T16:36:28.578Z,0.88
2023-05-19T16:38:56.350Z,0.90
2023-05-19T16:41:24.264Z,1.58
2023-05-19T16:43:52.054Z,0.82
2023-05-19T16:46:19.959Z,1.90
2023-05-19T16:48:47.950Z,1.10
2023-05-19T16:51:15.819Z,1.40
2023-05-19T16:53:44.985Z,1.30
2023-05-19T16:56:12.758Z,1.17
2023-05-19T16:58:40.555Z,1.75
2023-05-19T17:01:09.793Z,1.10
2023-05-19T17:03:37.707Z,1.08
2023-05-19T17:06:05.557Z,1.45
2023-05-19T17:08:33.436Z,1.23
2023-05-19T17:11:02.654Z,0.82
2023-05-19T17:13:33.619Z,1.27
2023-05-19T17:16:01.464Z,1.33
2023-05-19T17:18:30.305Z,1.00
2023-05-19T17:20:59.202Z,0.98
2023-05-19T17:23:26.987Z,0.98
2023-05-19T17:25:55.655Z,1.08
2023-05-19T17:28:24.847Z,1.50
2023-05-19T17:30:52.648Z,0.90
2023-05-19T17:33:20.859Z,1.40
2023-05-19T17:35:48.644Z,0.75
2023-05-19T17:38:16.928Z,1.30
2023-05-19T17:40:44.701Z,1.42
2023-05-19T17:43:12.739Z,1.08
2023-05-19T17:45:41.836Z,1.80
2023-05-19T17:48:09.737Z,1.38
2023-05-19T17:50:37.477Z,1.77
2023-05-19T17:53:05.951Z,1.77
2023-05-19T17:55:34.802Z,1.42
2023-05-19T17:58:03.106Z,1.20
2023-05-19T18:00:33.635Z,1.83
2023-05-19T18:03:04.961Z,1.38
2023-05-19T18:05:37.420Z,1.13
2023-05-19T18:08:09.246Z,2.03
2023-05-19T18:10:39.052Z,2.00
2023-05-19T18:13:07.811Z,1.17
2023-05-19T18:15:36.345Z,1.65
2023-05-19T18:18:07.527Z,1.90
2023-05-19T18:20:35.977Z,1.23
2023-05-19T18:23:03.795Z,1.65
2023-05-19T18:25:31.567Z,1.73
2023-05-19T18:27:59.305Z,1.88
2023-05-19T18:30:27.107Z,2.45
2023-05-19T18:32:56.648Z,1.70
2023-05-19T18:35:25.849Z,1.67
2023-05-19T18:37:56.270Z,2.03
2023-05-19T18:40:24.464Z,1.80
2023-05-19T18:42:52.224Z,2.35
2023-05-19T18:45:19.989Z,2.47
2023-05-19T18:47:47.847Z,2.38
2023-05-19T18:50:16.567Z,1.70
2023-05-19T18:52:45.662Z,1.50
2023-05-19T18:55:13.470Z,1.85
2023-05-19T18:57:44.711Z,2.05
2023-05-19T19:00:14.573Z,1.95
2023-05-19T19:02:42.609Z,1.70
2023-05-19T19:05:10.868Z,1.48
2023-05-19T19:07:41.067Z,1.48
2023-05-19T19:10:11.030Z,2.10
2023-05-19T19:12:38.902Z,1.88
2023-05-19T19:15:07.792Z,1.73
2023-05-19T19:17:36.912Z,2.58
2023-05-19T19:20:06.750Z,1.42
2023-05-19T19:22:34.592Z,1.65
2023-05-19T19:25:02.364Z,1.88
2023-05-19T19:27:35.357Z,1.10
2023-05-19T19:30:03.748Z,1.45
2023-05-19T19:32:34.940Z,1.35
2023-05-19T19:35:02.668Z,2.75
2023-05-19T19:37:30.478Z,2.17
2023-05-19T19:39:58.408Z,3.00
2023-05-19T19:42:26.364Z,2.38
2023-05-19T19:44:57.021Z,2.28
2023-05-19T19:47:25.055Z,1.60
2023-05-19T19:49:52.850Z,1.25
2023-05-19T19:52:20.752Z,2.33
2023-05-19T19:54:49.096Z,1.77
2023-05-19T19:57:17.714Z,1.52
2023-05-19T19:59:45.498Z,1.55
2023-05-19T20:02:15.330Z,1.30
2023-05-19T20:04:43.184Z,1.40
2023-05-19T20:07:11.022Z,1.30
2023-05-19T20:09:38.931Z,1.63
2023-05-19T20:12:07.453Z,1.02
2023-05-19T20:14:35.249Z,1.25
2023-05-19T20:17:03.484Z,1.63
2023-05-19T20:19:32.623Z,1.95
2023-05-19T20:22:00.570Z,0.98
2023-05-19T20:24:28.361Z,1.25
2023-05-19T20:26:56.525Z,1.00
2023-05-19T20:29:24.463Z,0.98
2023-05-19T20:31:52.272Z,0.70
2023-05-19T20:34:20.352Z,0.32
2023-05-19T20:36:49.621Z,0.90
2023-05-19T20:39:17.452Z,1.00
2023-05-19T20:41:45.341Z,1.38
2023-05-19T20:44:13.091Z,1.73
2023-05-19T20:46:41.167Z,1.60
2023-05-19T20:49:08.923Z,1.52
2023-05-19T20:51:36.936Z,2.15
2023-05-19T20:54:07.312Z,1.98
2023-05-19T20:56:35.376Z,2.33
2023-05-19T20:59:03.976Z,1.90
2023-05-19T21:01:31.966Z,1.85
2023-05-19T21:03:59.792Z,1.90
2023-05-19T21:06:27.591Z,1.67
2023-05-19T21:08:55.436Z,1.50
2023-05-19T21:11:24.682Z,1.63
2023-05-19T21:13:52.409Z,2.10
2023-05-19T21:16:20.214Z,1.45
2023-05-19T21:18:48.119Z,1.30
2023-05-19T21:21:15.912Z,2.20
2023-05-19T21:23:44.063Z,2.33
2023-05-19T21:26:11.927Z,1.85
2023-05-19T21:28:41.064Z,2.35
2023-05-19T21:31:08.949Z,2.55
2023-05-19T21:33:36.886Z,2.72
2023-05-19T21:36:04.854Z,2.22
2023-05-19T21:38:32.679Z,1.80
2023-05-19T21:41:00.606Z,2.53
2023-05-19T21:43:28.491Z,2.17
2023-05-19T21:45:57.708Z,1.95
2023-05-19T21:48:25.515Z,2.20
2023-05-19T21:50:54.446Z,2.35
2023-05-19T21:53:22.258Z,2.67
2023-05-19T21:55:50.057Z,2.53
2023-05-19T21:58:18.236Z,2.47
2023-05-19T22:00:49.787Z,2.53
2023-05-19T22:03:19.570Z,2.45
2023-05-19T22:05:50.055Z,2.22
2023-05-19T22:08:18.948Z,2.85
2023-05-19T22:10:49.986Z,1.80
2023-05-19T22:13:17.767Z,2.40
2023-05-19T22:15:46.046Z,2.47
2023-05-19T22:18:13.855Z,2.35
2023-05-19T22:20:43.116Z,2.97
2023-05-19T22:23:11.316Z,2.65
2023-05-19T22:25:39.107Z,2.42
2023-05-19T22:28:08.107Z,2.85
2023-05-19T22:30:40.707Z,2.45
2023-05-19T22:33:09.426Z,2.13
2023-05-19T22:35:37.289Z,2.70
2023-05-19T22:38:07.501Z,3.05
2023-05-19T22:40:37.551Z,2.42
2023-05-19T22:43:05.552Z,2.15
2023-05-19T22:45:35.542Z,2.35
2023-05-19T22:48:03.710Z,1.67
2023-05-19T22:50:31.439Z,2.55
2023-05-19T22:52:59.213Z,2.30
2023-05-19T22:55:28.341Z,2.97
2023-05-19T22:57:56.234Z,2.17
2023-05-19T23:00:24.088Z,2.45
2023-05-19T23:02:51.915Z,3.08
2023-05-19T23:05:19.688Z,2.72
2023-05-19T23:07:47.548Z,2.17
2023-05-19T23:10:15.417Z,2.45
2023-05-19T23:12:44.517Z,3.95
2023-05-19T23:15:12.634Z,3.10
2023-05-19T23:17:40.487Z,1.98
2023-05-19T23:20:09.151Z,2.75
2023-05-19T23:22:36.941Z,1.73
2023-05-19T23:25:07.375Z,2.20
2023-05-19T23:27:36.164Z,1.98
2023-05-19T23:30:06.315Z,1.70
2023-05-19T23:32:34.168Z,2.67
2023-05-19T23:35:10.456Z,2.30
2023-05-19T23:37:38.287Z,2.10
2023-05-19T23:40:07.553Z,1.52
2023-05-19T23:42:35.746Z,2.03
2023-05-19T23:45:05.124Z,1.88
2023-05-19T23:47:32.982Z,1.92
2023-05-19T23:50:01.140Z,1.98
2023-05-19T23:52:28.968Z,1.50
2023-05-19T23:54:56.695Z,1.75
2023-05-19T23:57:24.494Z,1.67
2023-05-19T23:59:52.505Z,1.85
